14°C Temp
12°C Dewpoint
% Humidity
Temperature
13 KM/H
8 MPH
7 KTS
90°
Due East

Wind Speed
Light Rain
Showers
Pressure 1014.92 (hPa) - 29.97 (in)
Visibility 4.3 (mi) - 7.0 (km)

Current Conditions
LEHC
Location 10(km)
Metar :LEHC 221730Z AUTO 09007KT 050V110 7000 +SHRA BKN023/// ///TCU 14/12 Q1015
Thu 22nd October 17:30 pm

Airport
  Metar Aviation API Data Provided by https://www.checkwx.com/ PHP scripts by weather34.com ©2020